Wynyard West, Tasmania

8:17 PM AEDT on February 06, 2016 (GMT +1100)
Hobart | | Change Station
CLOSE
Current Station
Airport
Location: Hobart,
Elevation: 89 ft
Nearby Weather Stations

Elev 89 ft 42.83 °S, 147.50 °E | Updated 17 minutes ago

Mostly Cloudy
Mostly Cloudy
72 °F
Feels Like 72 °F
N
9
Wind Variable Wind from SE

Today
High -- | Low -- °F
--% Chance of Precip.
Yesterday
High -- | Low -- °F
Precip. -- in
Pressure 30.04 in
Visibility 6.2 miles
Clouds Few 1400 ft
Mostly Cloudy 4200 ft
Dew Point 57 °F
Humidity 60%
Rainfall 0.00 in
Snow Depth Not available.
6:21 AM 8:31 PM
Waning Crescent, 6% visible
METAR YMHB 060900Z 14008KT 9999 FEW014 BKN042 22/14 Q1017
Pressure 30.04 in
Visibility 6.2 miles
Clouds Few 1400 ft
Mostly Cloudy 4200 ft
Dew Point 57 °F
Humidity 60%
Rainfall 0.00 in
Snow Depth Not available.
6:21 AM 8:31 PM
Waning Crescent, 6% visible
METAR YMHB 060900Z 14008KT 9999 FEW014 BKN042 22/14 Q1017

10-Day Weather Forecast

Almanac

Astronomy

Feb. 06, 2016 Rise Set
Actual Time
Civil Twilight
Nautical Twilight
Astronomical Twilight
Moon
Length of Visible Light
Length of Day
Tomorrow will be .
, % of the Moon is Illuminated

Today's Extremes

Country Highs Country Lows

Community

WunderPhotos

Upload Photos

1,890,933 photos uploaded!

WunderBlog® & News

Nearby

Air Quality

  Air Quality AQ Index Pollutant
Not available.

Snow Depth

Station Depth Elevation

Earthquake Activity

City Distance Mag. Time & Date
Minimum magnitude displayed is 2.5.

Coastal Water Temperatures

Place Temperature

Stations

Nearby Weather Stations

Station Location Temp. Windchill Dew Point Humidity Wind Precip. Elev Updated Type